sensor_id;sensor_type;location;lat;lon;timestamp;P1;durP1;ratioP1;P2;durP2;ratioP2
74679;SDS011;63211;48.548;2.704;2023-05-24T00:01:19;1.52;;;0.55;;
74679;SDS011;63211;48.548;2.704;2023-05-24T00:03:49;1.83;;;0.60;;
74679;SDS011;63211;48.548;2.704;2023-05-24T00:06:16;1.38;;;0.45;;
74679;SDS011;63211;48.548;2.704;2023-05-24T00:08:43;2.65;;;0.50;;
74679;SDS011;63211;48.548;2.704;2023-05-24T00:11:09;2.20;;;0.50;;
74679;SDS011;63211;48.548;2.704;2023-05-24T00:13:36;2.22;;;0.50;;
74679;SDS011;63211;48.548;2.704;2023-05-24T00:16:03;2.50;;;0.70;;
74679;SDS011;63211;48.548;2.704;2023-05-24T00:18:31;1.88;;;0.40;;
74679;SDS011;63211;48.548;2.704;2023-05-24T00:20:58;1.65;;;0.60;;
74679;SDS011;63211;48.548;2.704;2023-05-24T00:23:24;0.60;;;0.30;;
74679;SDS011;63211;48.548;2.704;2023-05-24T00:25:51;0.95;;;0.50;;
74679;SDS011;63211;48.548;2.704;2023-05-24T00:28:18;2.65;;;0.80;;
74679;SDS011;63211;48.548;2.704;2023-05-24T00:30:45;2.00;;;0.40;;
74679;SDS011;63211;48.548;2.704;2023-05-24T00:33:11;1.35;;;0.50;;
74679;SDS011;63211;48.548;2.704;2023-05-24T00:35:39;2.35;;;0.40;;
74679;SDS011;63211;48.548;2.704;2023-05-24T00:38:06;1.55;;;0.50;;
74679;SDS011;63211;48.548;2.704;2023-05-24T00:40:32;1.70;;;0.43;;
74679;SDS011;63211;48.548;2.704;2023-05-24T00:42:59;0.77;;;0.55;;
74679;SDS011;63211;48.548;2.704;2023-05-24T00:45:26;1.17;;;0.40;;
74679;SDS011;63211;48.548;2.704;2023-05-24T00:47:52;1.10;;;0.55;;
74679;SDS011;63211;48.548;2.704;2023-05-24T00:50:19;1.08;;;0.50;;
74679;SDS011;63211;48.548;2.704;2023-05-24T00:52:47;1.75;;;0.50;;
74679;SDS011;63211;48.548;2.704;2023-05-24T00:55:16;1.15;;;0.40;;
74679;SDS011;63211;48.548;2.704;2023-05-24T00:57:42;0.98;;;0.55;;
74679;SDS011;63211;48.548;2.704;2023-05-24T01:00:10;1.25;;;0.40;;
74679;SDS011;63211;48.548;2.704;2023-05-24T01:02:37;1.98;;;0.30;;
74679;SDS011;63211;48.548;2.704;2023-05-24T01:05:04;1.75;;;0.38;;
74679;SDS011;63211;48.548;2.704;2023-05-24T01:07:32;1.50;;;0.43;;
74679;SDS011;63211;48.548;2.704;2023-05-24T01:10:13;0.57;;;0.30;;
74679;SDS011;63211;48.548;2.704;2023-05-24T01:12:49;0.63;;;0.40;;
74679;SDS011;63211;48.548;2.704;2023-05-24T01:15:23;0.65;;;0.35;;
74679;SDS011;63211;48.548;2.704;2023-05-24T01:17:59;1.48;;;0.50;;
74679;SDS011;63211;48.548;2.704;2023-05-24T01:20:31;0.85;;;0.40;;
74679;SDS011;63211;48.548;2.704;2023-05-24T01:23:06;0.98;;;0.30;;
74679;SDS011;63211;48.548;2.704;2023-05-24T01:25:45;1.98;;;0.30;;
74679;SDS011;63211;48.548;2.704;2023-05-24T01:28:20;1.77;;;0.47;;
74679;SDS011;63211;48.548;2.704;2023-05-24T01:30:49;1.50;;;0.40;;
74679;SDS011;63211;48.548;2.704;2023-05-24T01:33:16;1.00;;;0.52;;
74679;SDS011;63211;48.548;2.704;2023-05-24T01:35:42;0.47;;;0.30;;
74679;SDS011;63211;48.548;2.704;2023-05-24T01:38:09;1.98;;;0.50;;
74679;SDS011;63211;48.548;2.704;2023-05-24T01:40:36;2.60;;;0.50;;
74679;SDS011;63211;48.548;2.704;2023-05-24T01:43:06;1.35;;;0.40;;
74679;SDS011;63211;48.548;2.704;2023-05-24T01:48:15;0.95;;;0.30;;
74679;SDS011;63211;48.548;2.704;2023-05-24T01:50:51;0.63;;;0.30;;
74679;SDS011;63211;48.548;2.704;2023-05-24T01:53:20;0.80;;;0.28;;
74679;SDS011;63211;48.548;2.704;2023-05-24T01:58:19;0.43;;;0.28;;
74679;SDS011;63211;48.548;2.704;2023-05-24T02:00:49;1.55;;;0.32;;
74679;SDS011;63211;48.548;2.704;2023-05-24T02:03:17;1.55;;;0.57;;
74679;SDS011;63211;48.548;2.704;2023-05-24T02:05:45;0.80;;;0.60;;
74679;SDS011;63211;48.548;2.704;2023-05-24T02:08:12;1.50;;;0.73;;
74679;SDS011;63211;48.548;2.704;2023-05-24T02:10:39;0.82;;;0.32;;
74679;SDS011;63211;48.548;2.704;2023-05-24T02:13:06;0.90;;;0.40;;
74679;SDS011;63211;48.548;2.704;2023-05-24T02:15:33;1.23;;;0.40;;
74679;SDS011;63211;48.548;2.704;2023-05-24T02:18:02;2.67;;;0.45;;
74679;SDS011;63211;48.548;2.704;2023-05-24T02:20:31;1.63;;;0.40;;
74679;SDS011;63211;48.548;2.704;2023-05-24T02:23:00;0.98;;;0.45;;
74679;SDS011;63211;48.548;2.704;2023-05-24T02:25:27;1.38;;;0.30;;
74679;SDS011;63211;48.548;2.704;2023-05-24T02:27:55;0.82;;;0.40;;
74679;SDS011;63211;48.548;2.704;2023-05-24T02:30:22;1.67;;;0.60;;
74679;SDS011;63211;48.548;2.704;2023-05-24T02:32:49;1.33;;;0.40;;
74679;SDS011;63211;48.548;2.704;2023-05-24T02:35:17;1.55;;;0.40;;
74679;SDS011;63211;48.548;2.704;2023-05-24T02:37:43;0.63;;;0.38;;
74679;SDS011;63211;48.548;2.704;2023-05-24T02:40:10;1.40;;;0.43;;
74679;SDS011;63211;48.548;2.704;2023-05-24T02:42:37;1.42;;;0.52;;
74679;SDS011;63211;48.548;2.704;2023-05-24T02:45:04;2.95;;;0.63;;
74679;SDS011;63211;48.548;2.704;2023-05-24T02:47:32;1.35;;;0.50;;
74679;SDS011;63211;48.548;2.704;2023-05-24T02:49:58;1.15;;;0.20;;
74679;SDS011;63211;48.548;2.704;2023-05-24T02:52:26;1.00;;;0.40;;
74679;SDS011;63211;48.548;2.704;2023-05-24T02:54:53;1.92;;;0.32;;
74679;SDS011;63211;48.548;2.704;2023-05-24T02:57:20;0.98;;;0.40;;
74679;SDS011;63211;48.548;2.704;2023-05-24T02:59:46;1.67;;;0.30;;
74679;SDS011;63211;48.548;2.704;2023-05-24T03:02:13;0.73;;;0.30;;
74679;SDS011;63211;48.548;2.704;2023-05-24T03:04:40;0.70;;;0.20;;
74679;SDS011;63211;48.548;2.704;2023-05-24T03:07:06;1.15;;;0.40;;
74679;SDS011;63211;48.548;2.704;2023-05-24T03:09:34;0.63;;;0.30;;
74679;SDS011;63211;48.548;2.704;2023-05-24T03:12:01;2.15;;;0.30;;
74679;SDS011;63211;48.548;2.704;2023-05-24T03:14:27;1.38;;;0.43;;
74679;SDS011;63211;48.548;2.704;2023-05-24T03:16:54;0.65;;;0.20;;
74679;SDS011;63211;48.548;2.704;2023-05-24T03:19:20;1.27;;;0.32;;
74679;SDS011;63211;48.548;2.704;2023-05-24T03:21:47;0.40;;;0.10;;
74679;SDS011;63211;48.548;2.704;2023-05-24T03:24:13;0.57;;;0.30;;
74679;SDS011;63211;48.548;2.704;2023-05-24T03:26:41;1.42;;;0.40;;
74679;SDS011;63211;48.548;2.704;2023-05-24T03:29:08;0.57;;;0.40;;
74679;SDS011;63211;48.548;2.704;2023-05-24T03:31:34;0.50;;;0.20;;
74679;SDS011;63211;48.548;2.704;2023-05-24T03:34:01;1.42;;;0.38;;
74679;SDS011;63211;48.548;2.704;2023-05-24T03:36:28;0.40;;;0.10;;
74679;SDS011;63211;48.548;2.704;2023-05-24T03:38:54;2.10;;;0.35;;
74679;SDS011;63211;48.548;2.704;2023-05-24T03:41:22;2.45;;;0.30;;
74679;SDS011;63211;48.548;2.704;2023-05-24T03:43:50;1.15;;;0.30;;
74679;SDS011;63211;48.548;2.704;2023-05-24T03:46:16;1.25;;;0.40;;
74679;SDS011;63211;48.548;2.704;2023-05-24T03:48:43;1.00;;;0.25;;
74679;SDS011;63211;48.548;2.704;2023-05-24T03:51:10;0.93;;;0.43;;
74679;SDS011;63211;48.548;2.704;2023-05-24T03:53:36;0.60;;;0.20;;
74679;SDS011;63211;48.548;2.704;2023-05-24T03:56:03;0.85;;;0.20;;
74679;SDS011;63211;48.548;2.704;2023-05-24T03:58:30;1.77;;;0.22;;
74679;SDS011;63211;48.548;2.704;2023-05-24T04:00:57;1.17;;;0.30;;
74679;SDS011;63211;48.548;2.704;2023-05-24T04:03:25;1.73;;;0.20;;
74679;SDS011;63211;48.548;2.704;2023-05-24T04:05:52;0.52;;;0.22;;
74679;SDS011;63211;48.548;2.704;2023-05-24T04:08:18;1.15;;;0.30;;
74679;SDS011;63211;48.548;2.704;2023-05-24T04:10:45;0.40;;;0.20;;
74679;SDS011;63211;48.548;2.704;2023-05-24T04:13:12;0.93;;;0.40;;
74679;SDS011;63211;48.548;2.704;2023-05-24T04:15:38;1.33;;;0.40;;
74679;SDS011;63211;48.548;2.704;2023-05-24T04:18:07;1.30;;;0.65;;
74679;SDS011;63211;48.548;2.704;2023-05-24T04:20:34;1.00;;;0.43;;
74679;SDS011;63211;48.548;2.704;2023-05-24T04:23:00;0.52;;;0.30;;
74679;SDS011;63211;48.548;2.704;2023-05-24T04:25:27;0.60;;;0.20;;
74679;SDS011;63211;48.548;2.704;2023-05-24T04:27:54;1.05;;;0.50;;
74679;SDS011;63211;48.548;2.704;2023-05-24T04:30:21;1.17;;;0.35;;
74679;SDS011;63211;48.548;2.704;2023-05-24T04:32:47;1.10;;;0.32;;
74679;SDS011;63211;48.548;2.704;2023-05-24T04:35:16;2.25;;;0.45;;
74679;SDS011;63211;48.548;2.704;2023-05-24T04:37:43;1.55;;;0.82;;
74679;SDS011;63211;48.548;2.704;2023-05-24T04:40:11;0.55;;;0.25;;
74679;SDS011;63211;48.548;2.704;2023-05-24T04:42:37;1.67;;;0.35;;
74679;SDS011;63211;48.548;2.704;2023-05-24T04:45:04;2.22;;;0.40;;
74679;SDS011;63211;48.548;2.704;2023-05-24T04:47:32;1.33;;;0.30;;
74679;SDS011;63211;48.548;2.704;2023-05-24T04:49:58;1.17;;;0.20;;
74679;SDS011;63211;48.548;2.704;2023-05-24T04:52:26;1.05;;;0.28;;
74679;SDS011;63211;48.548;2.704;2023-05-24T04:54:54;0.70;;;0.20;;
74679;SDS011;63211;48.548;2.704;2023-05-24T04:57:22;1.08;;;0.43;;
74679;SDS011;63211;48.548;2.704;2023-05-24T04:59:48;1.30;;;0.30;;
74679;SDS011;63211;48.548;2.704;2023-05-24T05:02:15;2.03;;;0.30;;
74679;SDS011;63211;48.548;2.704;2023-05-24T05:04:42;2.15;;;0.20;;
74679;SDS011;63211;48.548;2.704;2023-05-24T05:07:08;2.70;;;0.57;;
74679;SDS011;63211;48.548;2.704;2023-05-24T05:09:36;1.63;;;0.20;;
74679;SDS011;63211;48.548;2.704;2023-05-24T05:12:03;0.50;;;0.20;;
74679;SDS011;63211;48.548;2.704;2023-05-24T05:14:31;1.30;;;0.40;;
74679;SDS011;63211;48.548;2.704;2023-05-24T05:16:57;2.63;;;0.50;;
74679;SDS011;63211;48.548;2.704;2023-05-24T05:19:24;0.95;;;0.25;;
74679;SDS011;63211;48.548;2.704;2023-05-24T05:21:51;1.00;;;0.40;;
74679;SDS011;63211;48.548;2.704;2023-05-24T05:24:17;1.08;;;0.60;;
74679;SDS011;63211;48.548;2.704;2023-05-24T05:26:45;4.30;;;0.55;;
74679;SDS011;63211;48.548;2.704;2023-05-24T05:29:12;1.63;;;0.35;;
74679;SDS011;63211;48.548;2.704;2023-05-24T05:31:39;2.33;;;0.47;;
74679;SDS011;63211;48.548;2.704;2023-05-24T05:34:05;1.92;;;0.30;;
74679;SDS011;63211;48.548;2.704;2023-05-24T05:36:34;0.80;;;0.35;;
74679;SDS011;63211;48.548;2.704;2023-05-24T05:39:04;3.70;;;0.45;;
74679;SDS011;63211;48.548;2.704;2023-05-24T05:41:33;1.08;;;0.30;;
74679;SDS011;63211;48.548;2.704;2023-05-24T05:44:04;2.17;;;0.57;;
74679;SDS011;63211;48.548;2.704;2023-05-24T05:46:31;4.72;;;1.17;;
74679;SDS011;63211;48.548;2.704;2023-05-24T05:48:57;40.25;;;8.07;;
74679;SDS011;63211;48.548;2.704;2023-05-24T05:51:24;54.50;;;10.65;;
74679;SDS011;63211;48.548;2.704;2023-05-24T05:53:50;49.55;;;9.20;;
74679;SDS011;63211;48.548;2.704;2023-05-24T05:56:17;36.78;;;8.50;;
74679;SDS011;63211;48.548;2.704;2023-05-24T05:58:45;69.38;;;14.05;;
74679;SDS011;63211;48.548;2.704;2023-05-24T06:01:14;55.00;;;10.38;;
74679;SDS011;63211;48.548;2.704;2023-05-24T06:03:41;39.25;;;9.32;;
74679;SDS011;63211;48.548;2.704;2023-05-24T06:06:07;29.30;;;7.20;;
74679;SDS011;63211;48.548;2.704;2023-05-24T06:08:34;26.23;;;6.65;;
74679;SDS011;63211;48.548;2.704;2023-05-24T06:11:01;32.38;;;6.60;;
74679;SDS011;63211;48.548;2.704;2023-05-24T06:13:28;32.75;;;6.40;;
74679;SDS011;63211;48.548;2.704;2023-05-24T06:15:55;25.02;;;5.05;;
74679;SDS011;63211;48.548;2.704;2023-05-24T06:18:24;27.52;;;5.10;;
74679;SDS011;63211;48.548;2.704;2023-05-24T06:20:51;18.20;;;5.00;;
74679;SDS011;63211;48.548;2.704;2023-05-24T06:23:18;20.75;;;5.45;;
74679;SDS011;63211;48.548;2.704;2023-05-24T06:25:44;22.17;;;5.20;;
74679;SDS011;63211;48.548;2.704;2023-05-24T06:28:11;15.60;;;4.38;;
74679;SDS011;63211;48.548;2.704;2023-05-24T06:30:37;16.90;;;4.05;;
74679;SDS011;63211;48.548;2.704;2023-05-24T06:33:04;14.18;;;4.03;;
74679;SDS011;63211;48.548;2.704;2023-05-24T06:35:32;13.60;;;3.60;;
74679;SDS011;63211;48.548;2.704;2023-05-24T06:37:58;14.07;;;3.28;;
74679;SDS011;63211;48.548;2.704;2023-05-24T06:40:25;15.45;;;3.42;;
74679;SDS011;63211;48.548;2.704;2023-05-24T06:42:52;10.85;;;2.90;;
74679;SDS011;63211;48.548;2.704;2023-05-24T06:45:18;14.23;;;2.75;;
74679;SDS011;63211;48.548;2.704;2023-05-24T06:47:45;6.55;;;2.67;;
74679;SDS011;63211;48.548;2.704;2023-05-24T06:50:11;10.25;;;2.00;;
74679;SDS011;63211;48.548;2.704;2023-05-24T06:52:39;14.93;;;2.60;;
74679;SDS011;63211;48.548;2.704;2023-05-24T06:55:06;6.90;;;2.35;;
74679;SDS011;63211;48.548;2.704;2023-05-24T06:57:33;8.02;;;1.92;;
74679;SDS011;63211;48.548;2.704;2023-05-24T07:00:00;7.95;;;2.00;;
74679;SDS011;63211;48.548;2.704;2023-05-24T07:02:29;4.65;;;2.17;;
74679;SDS011;63211;48.548;2.704;2023-05-24T07:04:55;8.07;;;2.00;;
74679;SDS011;63211;48.548;2.704;2023-05-24T07:07:22;9.90;;;1.75;;
74679;SDS011;63211;48.548;2.704;2023-05-24T07:09:50;5.82;;;1.70;;
74679;SDS011;63211;48.548;2.704;2023-05-24T07:12:16;6.85;;;1.80;;
74679;SDS011;63211;48.548;2.704;2023-05-24T07:14:43;5.78;;;1.70;;
74679;SDS011;63211;48.548;2.704;2023-05-24T07:17:10;5.88;;;1.60;;
74679;SDS011;63211;48.548;2.704;2023-05-24T07:19:36;7.72;;;1.10;;
74679;SDS011;63211;48.548;2.704;2023-05-24T07:22:03;5.15;;;1.42;;
74679;SDS011;63211;48.548;2.704;2023-05-24T07:24:30;8.88;;;1.70;;
74679;SDS011;63211;48.548;2.704;2023-05-24T07:26:58;4.72;;;1.45;;
74679;SDS011;63211;48.548;2.704;2023-05-24T07:29:24;6.18;;;1.30;;
74679;SDS011;63211;48.548;2.704;2023-05-24T07:31:53;4.85;;;1.50;;
74679;SDS011;63211;48.548;2.704;2023-05-24T07:34:20;10.23;;;1.48;;
74679;SDS011;63211;48.548;2.704;2023-05-24T07:36:51;10.30;;;2.35;;
74679;SDS011;63211;48.548;2.704;2023-05-24T07:39:17;4.45;;;1.00;;
74679;SDS011;63211;48.548;2.704;2023-05-24T07:41:44;4.38;;;1.10;;
74679;SDS011;63211;48.548;2.704;2023-05-24T07:44:12;5.70;;;1.30;;
74679;SDS011;63211;48.548;2.704;2023-05-24T07:46:39;9.25;;;1.25;;
74679;SDS011;63211;48.548;2.704;2023-05-24T07:49:06;5.75;;;1.48;;
74679;SDS011;63211;48.548;2.704;2023-05-24T07:51:32;3.33;;;1.00;;
74679;SDS011;63211;48.548;2.704;2023-05-24T07:53:59;6.85;;;1.20;;
74679;SDS011;63211;48.548;2.704;2023-05-24T07:56:26;1.77;;;0.63;;
74679;SDS011;63211;48.548;2.704;2023-05-24T07:58:52;5.07;;;0.85;;
74679;SDS011;63211;48.548;2.704;2023-05-24T08:01:28;4.05;;;1.25;;
74679;SDS011;63211;48.548;2.704;2023-05-24T08:03:55;3.60;;;0.73;;
74679;SDS011;63211;48.548;2.704;2023-05-24T08:06:22;5.43;;;0.77;;
74679;SDS011;63211;48.548;2.704;2023-05-24T08:08:49;3.25;;;0.90;;
74679;SDS011;63211;48.548;2.704;2023-05-24T08:11:15;3.63;;;0.70;;
74679;SDS011;63211;48.548;2.704;2023-05-24T08:13:42;3.08;;;0.60;;
74679;SDS011;63211;48.548;2.704;2023-05-24T08:16:09;3.92;;;0.93;;
74679;SDS011;63211;48.548;2.704;2023-05-24T08:18:37;3.53;;;0.65;;
74679;SDS011;63211;48.548;2.704;2023-05-24T08:21:04;2.97;;;0.65;;
74679;SDS011;63211;48.548;2.704;2023-05-24T08:23:30;2.35;;;0.60;;
74679;SDS011;63211;48.548;2.704;2023-05-24T08:25:58;2.58;;;0.68;;
74679;SDS011;63211;48.548;2.704;2023-05-24T08:28:24;2.22;;;0.60;;
74679;SDS011;63211;48.548;2.704;2023-05-24T08:30:52;1.92;;;0.80;;
74679;SDS011;63211;48.548;2.704;2023-05-24T08:33:18;2.00;;;0.50;;
74679;SDS011;63211;48.548;2.704;2023-05-24T08:35:48;2.72;;;0.73;;
74679;SDS011;63211;48.548;2.704;2023-05-24T08:38:15;2.83;;;0.40;;
74679;SDS011;63211;48.548;2.704;2023-05-24T08:40:41;3.22;;;0.80;;
74679;SDS011;63211;48.548;2.704;2023-05-24T08:43:08;2.47;;;0.60;;
74679;SDS011;63211;48.548;2.704;2023-05-24T08:45:36;1.33;;;0.38;;
74679;SDS011;63211;48.548;2.704;2023-05-24T08:48:03;5.07;;;0.77;;
74679;SDS011;63211;48.548;2.704;2023-05-24T08:50:30;2.20;;;0.80;;
74679;SDS011;63211;48.548;2.704;2023-05-24T08:53:00;1.55;;;0.40;;
74679;SDS011;63211;48.548;2.704;2023-05-24T08:55:28;3.78;;;0.52;;
74679;SDS011;63211;48.548;2.704;2023-05-24T08:57:55;1.38;;;0.50;;
74679;SDS011;63211;48.548;2.704;2023-05-24T09:00:22;3.67;;;0.88;;
74679;SDS011;63211;48.548;2.704;2023-05-24T09:02:49;2.28;;;0.60;;
74679;SDS011;63211;48.548;2.704;2023-05-24T09:05:16;3.53;;;0.40;;
74679;SDS011;63211;48.548;2.704;2023-05-24T09:07:45;1.05;;;0.50;;
74679;SDS011;63211;48.548;2.704;2023-05-24T09:10:15;0.98;;;0.40;;
74679;SDS011;63211;48.548;2.704;2023-05-24T09:12:46;2.13;;;0.40;;
74679;SDS011;63211;48.548;2.704;2023-05-24T09:15:17;1.42;;;0.70;;
74679;SDS011;63211;48.548;2.704;2023-05-24T09:17:43;2.67;;;0.50;;
74679;SDS011;63211;48.548;2.704;2023-05-24T09:20:11;2.38;;;0.80;;
74679;SDS011;63211;48.548;2.704;2023-05-24T09:22:39;3.92;;;0.60;;
74679;SDS011;63211;48.548;2.704;2023-05-24T09:25:07;1.60;;;0.40;;
74679;SDS011;63211;48.548;2.704;2023-05-24T09:27:36;2.60;;;0.60;;
74679;SDS011;63211;48.548;2.704;2023-05-24T09:30:06;3.25;;;0.40;;
74679;SDS011;63211;48.548;2.704;2023-05-24T09:32:34;2.83;;;0.50;;
74679;SDS011;63211;48.548;2.704;2023-05-24T09:35:01;1.65;;;0.30;;
74679;SDS011;63211;48.548;2.704;2023-05-24T09:37:28;2.80;;;0.68;;
74679;SDS011;63211;48.548;2.704;2023-05-24T09:39:55;2.58;;;0.60;;
74679;SDS011;63211;48.548;2.704;2023-05-24T09:42:22;1.58;;;0.45;;
74679;SDS011;63211;48.548;2.704;2023-05-24T09:44:58;1.83;;;0.57;;
74679;SDS011;63211;48.548;2.704;2023-05-24T09:47:27;1.95;;;0.22;;
74679;SDS011;63211;48.548;2.704;2023-05-24T09:49:54;3.05;;;0.52;;
74679;SDS011;63211;48.548;2.704;2023-05-24T09:52:21;2.05;;;0.32;;
74679;SDS011;63211;48.548;2.704;2023-05-24T09:54:48;1.65;;;0.50;;
74679;SDS011;63211;48.548;2.704;2023-05-24T09:57:15;1.95;;;0.50;;
74679;SDS011;63211;48.548;2.704;2023-05-24T09:59:41;1.85;;;0.30;;
74679;SDS011;63211;48.548;2.704;2023-05-24T10:02:10;2.20;;;0.70;;
74679;SDS011;63211;48.548;2.704;2023-05-24T10:04:37;1.83;;;0.40;;
74679;SDS011;63211;48.548;2.704;2023-05-24T10:07:04;1.33;;;0.20;;
74679;SDS011;63211;48.548;2.704;2023-05-24T10:09:31;1.90;;;0.30;;
74679;SDS011;63211;48.548;2.704;2023-05-24T10:12:00;1.00;;;0.40;;
74679;SDS011;63211;48.548;2.704;2023-05-24T10:14:30;3.38;;;0.30;;
74679;SDS011;63211;48.548;2.704;2023-05-24T10:16:58;1.48;;;0.40;;
74679;SDS011;63211;48.548;2.704;2023-05-24T10:19:26;0.98;;;0.45;;
74679;SDS011;63211;48.548;2.704;2023-05-24T10:21:53;1.92;;;0.40;;
74679;SDS011;63211;48.548;2.704;2023-05-24T10:24:22;1.73;;;0.50;;
74679;SDS011;63211;48.548;2.704;2023-05-24T10:26:50;1.85;;;0.65;;
74679;SDS011;63211;48.548;2.704;2023-05-24T10:29:22;0.40;;;0.20;;
74679;SDS011;63211;48.548;2.704;2023-05-24T10:31:55;1.63;;;0.40;;
74679;SDS011;63211;48.548;2.704;2023-05-24T10:34:22;1.45;;;0.45;;
74679;SDS011;63211;48.548;2.704;2023-05-24T10:36:50;0.50;;;0.30;;
74679;SDS011;63211;48.548;2.704;2023-05-24T10:39:18;1.30;;;0.40;;
74679;SDS011;63211;48.548;2.704;2023-05-24T10:41:46;1.48;;;0.60;;
74679;SDS011;63211;48.548;2.704;2023-05-24T10:44:16;2.50;;;0.60;;
74679;SDS011;63211;48.548;2.704;2023-05-24T10:49:34;1.73;;;0.30;;
74679;SDS011;63211;48.548;2.704;2023-05-24T10:52:02;1.95;;;0.57;;
74679;SDS011;63211;48.548;2.704;2023-05-24T10:54:32;1.60;;;0.55;;
74679;SDS011;63211;48.548;2.704;2023-05-24T10:57:00;3.00;;;0.50;;
74679;SDS011;63211;48.548;2.704;2023-05-24T10:59:29;0.80;;;0.10;;
74679;SDS011;63211;48.548;2.704;2023-05-24T11:01:59;1.58;;;0.47;;
74679;SDS011;63211;48.548;2.704;2023-05-24T11:04:29;2.22;;;0.40;;
74679;SDS011;63211;48.548;2.704;2023-05-24T11:06:59;1.73;;;0.43;;
74679;SDS011;63211;48.548;2.704;2023-05-24T11:11:56;0.40;;;0.10;;
74679;SDS011;63211;48.548;2.704;2023-05-24T11:14:27;0.88;;;0.30;;
74679;SDS011;63211;48.548;2.704;2023-05-24T11:16:55;0.70;;;0.30;;
74679;SDS011;63211;48.548;2.704;2023-05-24T11:19:27;2.67;;;0.35;;
74679;SDS011;63211;48.548;2.704;2023-05-24T11:21:56;1.60;;;0.22;;
74679;SDS011;63211;48.548;2.704;2023-05-24T11:24:23;1.10;;;0.40;;
74679;SDS011;63211;48.548;2.704;2023-05-24T11:26:53;2.13;;;0.20;;
74679;SDS011;63211;48.548;2.704;2023-05-24T11:29:21;0.77;;;0.30;;
74679;SDS011;63211;48.548;2.704;2023-05-24T11:31:48;0.65;;;0.15;;
74679;SDS011;63211;48.548;2.704;2023-05-24T11:34:16;1.25;;;0.40;;
74679;SDS011;63211;48.548;2.704;2023-05-24T11:36:43;6.90;;;0.55;;
74679;SDS011;63211;48.548;2.704;2023-05-24T11:39:11;2.45;;;0.20;;
74679;SDS011;63211;48.548;2.704;2023-05-24T11:41:38;0.63;;;0.20;;
74679;SDS011;63211;48.548;2.704;2023-05-24T11:44:07;0.55;;;0.20;;
74679;SDS011;63211;48.548;2.704;2023-05-24T11:46:35;1.02;;;0.30;;
74679;SDS011;63211;48.548;2.704;2023-05-24T11:49:03;0.93;;;0.30;;
74679;SDS011;63211;48.548;2.704;2023-05-24T11:51:31;1.60;;;0.35;;
74679;SDS011;63211;48.548;2.704;2023-05-24T11:53:59;1.05;;;0.30;;
74679;SDS011;63211;48.548;2.704;2023-05-24T11:56:26;1.40;;;0.32;;
74679;SDS011;63211;48.548;2.704;2023-05-24T11:58:58;1.45;;;0.40;;
74679;SDS011;63211;48.548;2.704;2023-05-24T12:01:39;0.73;;;0.40;;
74679;SDS011;63211;48.548;2.704;2023-05-24T12:04:06;0.68;;;0.20;;
74679;SDS011;63211;48.548;2.704;2023-05-24T12:06:34;0.45;;;0.30;;
74679;SDS011;63211;48.548;2.704;2023-05-24T12:09:01;0.93;;;0.30;;
74679;SDS011;63211;48.548;2.704;2023-05-24T12:11:31;0.55;;;0.20;;
74679;SDS011;63211;48.548;2.704;2023-05-24T12:13:58;1.60;;;0.30;;
74679;SDS011;63211;48.548;2.704;2023-05-24T12:16:26;1.65;;;0.30;;
74679;SDS011;63211;48.548;2.704;2023-05-24T12:18:56;1.20;;;0.38;;
74679;SDS011;63211;48.548;2.704;2023-05-24T12:21:22;0.50;;;0.30;;
74679;SDS011;63211;48.548;2.704;2023-05-24T12:23:49;3.42;;;0.35;;
74679;SDS011;63211;48.548;2.704;2023-05-24T12:26:16;1.90;;;0.82;;
74679;SDS011;63211;48.548;2.704;2023-05-24T12:28:46;1.10;;;0.35;;
74679;SDS011;63211;48.548;2.704;2023-05-24T12:31:18;1.27;;;0.20;;
74679;SDS011;63211;48.548;2.704;2023-05-24T12:33:46;0.52;;;0.20;;
74679;SDS011;63211;48.548;2.704;2023-05-24T12:36:13;0.60;;;0.30;;
74679;SDS011;63211;48.548;2.704;2023-05-24T12:38:40;1.55;;;0.20;;
74679;SDS011;63211;48.548;2.704;2023-05-24T12:41:07;1.30;;;0.35;;
74679;SDS011;63211;48.548;2.704;2023-05-24T12:43:36;0.70;;;0.40;;
74679;SDS011;63211;48.548;2.704;2023-05-24T12:46:03;0.73;;;0.30;;
74679;SDS011;63211;48.548;2.704;2023-05-24T12:48:30;1.05;;;0.30;;
74679;SDS011;63211;48.548;2.704;2023-05-24T12:50:58;1.40;;;0.32;;
74679;SDS011;63211;48.548;2.704;2023-05-24T12:53:26;0.80;;;0.30;;
74679;SDS011;63211;48.548;2.704;2023-05-24T12:55:52;1.35;;;0.35;;
74679;SDS011;63211;48.548;2.704;2023-05-24T12:58:20;2.30;;;0.55;;
74679;SDS011;63211;48.548;2.704;2023-05-24T13:00:47;1.52;;;0.30;;
74679;SDS011;63211;48.548;2.704;2023-05-24T13:03:14;1.00;;;0.35;;
74679;SDS011;63211;48.548;2.704;2023-05-24T13:05:41;1.05;;;0.20;;
74679;SDS011;63211;48.548;2.704;2023-05-24T13:08:09;0.80;;;0.30;;
74679;SDS011;63211;48.548;2.704;2023-05-24T13:10:36;1.30;;;0.30;;
74679;SDS011;63211;48.548;2.704;2023-05-24T13:13:02;1.52;;;0.55;;
74679;SDS011;63211;48.548;2.704;2023-05-24T13:15:29;1.85;;;0.32;;
74679;SDS011;63211;48.548;2.704;2023-05-24T13:17:55;1.08;;;0.30;;
74679;SDS011;63211;48.548;2.704;2023-05-24T13:20:22;1.05;;;0.38;;
74679;SDS011;63211;48.548;2.704;2023-05-24T13:22:49;0.63;;;0.20;;
74679;SDS011;63211;48.548;2.704;2023-05-24T13:25:18;1.02;;;0.40;;
74679;SDS011;63211;48.548;2.704;2023-05-24T13:27:46;0.60;;;0.20;;
74679;SDS011;63211;48.548;2.704;2023-05-24T13:30:13;1.85;;;0.55;;
74679;SDS011;63211;48.548;2.704;2023-05-24T13:32:41;0.85;;;0.57;;
74679;SDS011;63211;48.548;2.704;2023-05-24T13:35:08;0.50;;;0.10;;
74679;SDS011;63211;48.548;2.704;2023-05-24T13:37:35;1.00;;;0.30;;
74679;SDS011;63211;48.548;2.704;2023-05-24T13:40:02;1.95;;;0.50;;
74679;SDS011;63211;48.548;2.704;2023-05-24T13:42:31;2.50;;;0.68;;
74679;SDS011;63211;48.548;2.704;2023-05-24T13:44:57;1.65;;;0.47;;
74679;SDS011;63211;48.548;2.704;2023-05-24T13:47:24;1.15;;;0.60;;
74679;SDS011;63211;48.548;2.704;2023-05-24T13:49:51;1.02;;;0.52;;
74679;SDS011;63211;48.548;2.704;2023-05-24T13:52:17;1.33;;;0.60;;
74679;SDS011;63211;48.548;2.704;2023-05-24T13:54:44;2.28;;;0.82;;
74679;SDS011;63211;48.548;2.704;2023-05-24T13:57:10;1.80;;;1.00;;
74679;SDS011;63211;48.548;2.704;2023-05-24T13:59:38;2.47;;;1.00;;
74679;SDS011;63211;48.548;2.704;2023-05-24T14:02:06;3.25;;;0.82;;
74679;SDS011;63211;48.548;2.704;2023-05-24T14:04:32;2.17;;;0.77;;
74679;SDS011;63211;48.548;2.704;2023-05-24T14:06:59;5.00;;;0.93;;
74679;SDS011;63211;48.548;2.704;2023-05-24T14:09:26;1.55;;;0.68;;
74679;SDS011;63211;48.548;2.704;2023-05-24T14:11:52;2.67;;;0.60;;
74679;SDS011;63211;48.548;2.704;2023-05-24T14:14:19;2.63;;;0.65;;
74679;SDS011;63211;48.548;2.704;2023-05-24T14:16:47;3.22;;;1.00;;
74679;SDS011;63211;48.548;2.704;2023-05-24T14:19:16;3.10;;;0.90;;
74679;SDS011;63211;48.548;2.704;2023-05-24T14:21:43;3.42;;;1.20;;
74679;SDS011;63211;48.548;2.704;2023-05-24T14:24:09;2.85;;;1.08;;
74679;SDS011;63211;48.548;2.704;2023-05-24T14:26:36;2.70;;;1.00;;
74679;SDS011;63211;48.548;2.704;2023-05-24T14:29:03;2.25;;;1.10;;
74679;SDS011;63211;48.548;2.704;2023-05-24T14:31:29;3.45;;;1.30;;
74679;SDS011;63211;48.548;2.704;2023-05-24T14:33:58;1.33;;;0.70;;
74679;SDS011;63211;48.548;2.704;2023-05-24T14:36:25;3.15;;;1.17;;
74679;SDS011;63211;48.548;2.704;2023-05-24T14:38:52;3.65;;;1.10;;
74679;SDS011;63211;48.548;2.704;2023-05-24T14:41:18;1.95;;;0.80;;
74679;SDS011;63211;48.548;2.704;2023-05-24T14:43:46;1.88;;;1.13;;
74679;SDS011;63211;48.548;2.704;2023-05-24T14:46:13;2.33;;;0.95;;
74679;SDS011;63211;48.548;2.704;2023-05-24T14:48:39;1.30;;;0.80;;
74679;SDS011;63211;48.548;2.704;2023-05-24T14:51:07;4.00;;;1.10;;
74679;SDS011;63211;48.548;2.704;2023-05-24T14:53:34;2.33;;;0.95;;
74679;SDS011;63211;48.548;2.704;2023-05-24T14:56:01;1.98;;;0.70;;
74679;SDS011;63211;48.548;2.704;2023-05-24T14:58:29;1.90;;;0.90;;